createdAt,value
2017-09-13T00:00:26.292Z,1004.73
2017-09-13T00:01:35.137Z,1004.73
2017-09-13T00:02:43.980Z,1004.75
2017-09-13T00:03:52.820Z,1004.79
2017-09-13T00:05:01.661Z,1004.81
2017-09-13T00:06:10.649Z,1004.83
2017-09-13T00:07:19.489Z,1004.8
2017-09-13T00:08:28.329Z,1004.76
2017-09-13T00:09:37.173Z,1004.74
2017-09-13T00:10:46.011Z,1004.72
2017-09-13T00:11:54.953Z,1004.66
2017-09-13T00:13:03.792Z,1004.67
2017-09-13T00:14:12.633Z,1004.61
2017-09-13T00:15:21.475Z,1004.62
2017-09-13T00:16:30.315Z,1004.64
2017-09-13T00:17:39.255Z,1004.55
2017-09-13T00:18:48.096Z,1004.52
2017-09-13T00:19:56.937Z,1004.48
2017-09-13T00:21:05.776Z,1004.54
2017-09-13T00:22:14.620Z,1004.55
2017-09-13T00:23:23.610Z,1004.52
2017-09-13T00:24:32.451Z,1004.51
2017-09-13T00:25:41.294Z,1004.43
2017-09-13T00:26:50.132Z,1004.36
2017-09-13T00:27:59.308Z,1004.28
2017-09-13T00:29:08.301Z,1004.22
2017-09-13T00:30:17.143Z,1004.14
2017-09-13T00:31:25.986Z,1004.11
2017-09-13T00:32:34.826Z,1004.07
2017-09-13T00:33:43.669Z,1004.03
2017-09-13T00:34:52.662Z,1003.98
2017-09-13T00:36:01.503Z,1003.99
2017-09-13T00:37:10.348Z,1003.95
2017-09-13T00:38:19.190Z,1003.92
2017-09-13T00:39:28.029Z,1003.92
2017-09-13T00:40:36.870Z,1003.94
2017-09-13T00:41:45.713Z,1003.93
2017-09-13T00:42:54.558Z,1003.85
2017-09-13T00:44:03.400Z,1003.86
2017-09-13T00:45:12.573Z,1003.88
2017-09-13T00:46:21.515Z,1003.87
2017-09-13T00:47:30.355Z,1003.8
2017-09-13T00:48:39.201Z,1003.78
2017-09-13T00:49:48.045Z,1003.75
2017-09-13T00:50:56.890Z,1003.83
2017-09-13T00:52:05.884Z,1003.82
2017-09-13T00:53:14.729Z,1003.83
2017-09-13T00:54:23.570Z,1003.84
2017-09-13T00:55:32.411Z,1003.81
2017-09-13T00:56:41.254Z,1003.83
2017-09-13T00:57:50.144Z,1003.82
2017-09-13T00:58:58.983Z,1003.81
2017-09-13T01:00:07.825Z,1003.75
2017-09-13T01:01:16.665Z,1003.77
2017-09-13T01:02:25.507Z,1003.82
2017-09-13T01:03:34.835Z,1003.77
2017-09-13T01:04:43.677Z,1003.74
2017-09-13T01:05:52.518Z,1003.61
2017-09-13T01:07:01.357Z,1003.67
2017-09-13T01:08:10.200Z,1003.59
2017-09-13T01:09:19.093Z,1003.5
2017-09-13T01:10:27.934Z,1003.46
2017-09-13T01:11:36.776Z,1003.43
2017-09-13T01:12:45.620Z,1003.4
2017-09-13T01:13:54.460Z,1003.39
2017-09-13T01:15:03.685Z,1003.45
2017-09-13T01:16:12.527Z,1003.47
2017-09-13T01:17:21.372Z,1003.46
2017-09-13T01:18:30.215Z,1003.48
2017-09-13T01:19:39.054Z,1003.43
2017-09-13T01:20:47.947Z,1003.38
2017-09-13T01:21:56.789Z,1003.39
2017-09-13T01:23:05.631Z,1003.39
2017-09-13T01:24:14.475Z,1003.41
2017-09-13T01:25:23.314Z,1003.46
2017-09-13T01:26:32.204Z,1003.46
2017-09-13T01:27:41.047Z,1003.47
2017-09-13T01:28:49.886Z,1003.42
2017-09-13T01:29:58.726Z,1003.42
2017-09-13T01:31:07.571Z,1003.42
2017-09-13T01:32:16.465Z,1003.35
2017-09-13T01:33:25.307Z,1003.29
2017-09-13T01:34:34.482Z,1003.22
2017-09-13T01:35:43.325Z,1003.12
2017-09-13T01:36:52.163Z,1003.02
2017-09-13T01:38:01.107Z,1002.96
2017-09-13T01:39:09.947Z,1002.94
2017-09-13T01:40:18.789Z,1003
2017-09-13T01:41:27.631Z,1002.95
2017-09-13T01:42:36.472Z,1002.95
2017-09-13T01:43:45.414Z,1002.96
2017-09-13T01:44:54.256Z,1002.9
2017-09-13T01:46:03.095Z,1002.84
2017-09-13T01:47:12.275Z,1002.77
2017-09-13T01:48:21.114Z,1002.71
2017-09-13T01:49:30.006Z,1002.7
2017-09-13T01:50:38.850Z,1002.64
2017-09-13T01:51:47.690Z,1002.58
2017-09-13T01:52:56.530Z,1002.54
2017-09-13T01:54:05.370Z,1002.44
2017-09-13T01:55:14.615Z,1002.37
2017-09-13T01:56:23.461Z,1002.31
2017-09-13T01:57:32.306Z,1002.27
2017-09-13T01:58:41.148Z,1002.19
2017-09-13T01:59:49.991Z,1002.17
2017-09-13T02:00:58.832Z,1002.11
2017-09-13T02:02:07.672Z,1002.1
2017-09-13T02:03:16.515Z,1002.06
2017-09-13T02:04:25.356Z,1002.05
2017-09-13T02:05:34.198Z,1002
2017-09-13T02:06:43.140Z,1001.97
2017-09-13T02:07:51.979Z,1001.86
2017-09-13T02:09:00.820Z,1001.88
2017-09-13T02:10:09.659Z,1001.82
2017-09-13T02:11:18.502Z,1001.77
2017-09-13T02:12:27.447Z,1001.77
2017-09-13T02:13:36.290Z,1001.79
2017-09-13T02:14:45.129Z,1001.81
2017-09-13T02:15:53.969Z,1001.79
2017-09-13T02:17:02.812Z,1001.8
2017-09-13T02:18:11.753Z,1001.77
2017-09-13T02:19:20.593Z,1001.78
2017-09-13T02:20:29.433Z,1001.7
2017-09-13T02:21:38.276Z,1001.6
2017-09-13T02:22:47.120Z,1001.58
2017-09-13T02:23:55.961Z,1001.55
2017-09-13T02:25:04.804Z,1001.68
2017-09-13T02:26:13.646Z,1001.6
2017-09-13T02:27:22.485Z,1001.52
2017-09-13T02:28:31.327Z,1001.52
2017-09-13T02:29:40.318Z,1001.44
2017-09-13T02:30:49.161Z,1001.38
2017-09-13T02:31:58.005Z,1001.38
2017-09-13T02:33:06.849Z,1001.33
2017-09-13T02:34:15.691Z,1001.35
2017-09-13T02:35:24.587Z,1001.34
2017-09-13T02:36:33.427Z,1001.34
2017-09-13T02:37:42.598Z,1001.27
2017-09-13T02:38:51.440Z,1001.24
2017-09-13T02:40:00.281Z,1001.17
2017-09-13T02:41:09.172Z,1001.07
2017-09-13T02:42:18.016Z,1001.09
2017-09-13T02:43:26.862Z,1001.06
2017-09-13T02:44:35.698Z,1001.03
2017-09-13T02:45:44.593Z,1001.02
2017-09-13T02:46:53.533Z,1001.04
2017-09-13T02:48:02.378Z,1000.96
2017-09-13T02:49:11.226Z,1000.92
2017-09-13T02:50:20.068Z,1000.91
2017-09-13T02:51:28.909Z,1000.94
2017-09-13T02:52:37.804Z,1000.96
2017-09-13T02:53:46.646Z,1000.85
2017-09-13T02:54:55.493Z,1000.85
2017-09-13T02:56:04.335Z,1000.88
2017-09-13T02:57:13.175Z,1000.78
2017-09-13T02:58:22.073Z,1000.69
2017-09-13T02:59:30.917Z,1000.62
2017-09-13T03:00:40.095Z,1000.65
2017-09-13T03:01:48.935Z,1000.6
2017-09-13T03:02:57.785Z,1000.51
2017-09-13T03:04:06.674Z,1000.5
2017-09-13T03:05:15.518Z,1000.45
2017-09-13T03:06:24.357Z,1000.38
2017-09-13T03:07:33.250Z,1000.52
2017-09-13T03:08:42.091Z,1000.5
2017-09-13T03:09:51.034Z,1000.48
2017-09-13T03:10:59.876Z,1000.37
2017-09-13T03:12:08.719Z,1000.36
2017-09-13T03:13:17.559Z,1000.33
2017-09-13T03:14:26.737Z,1000.32
2017-09-13T03:15:36.017Z,1000.24
2017-09-13T03:16:44.856Z,1000.14
2017-09-13T03:17:53.697Z,1000.18
2017-09-13T03:19:02.540Z,1000.23
2017-09-13T03:20:11.386Z,1000.23
2017-09-13T03:21:20.328Z,1000.25
2017-09-13T03:22:29.171Z,1000.19
2017-09-13T03:23:38.012Z,1000.28
2017-09-13T03:24:46.855Z,1000.25
2017-09-13T03:25:55.695Z,1000.17
2017-09-13T03:27:04.689Z,1000.08
2017-09-13T03:28:13.530Z,999.96
2017-09-13T03:29:22.368Z,999.94
2017-09-13T03:30:31.211Z,999.99
2017-09-13T03:31:40.059Z,999.97
2017-09-13T03:32:48.997Z,999.95
2017-09-13T03:33:57.841Z,999.88
2017-09-13T03:35:06.683Z,999.84
2017-09-13T03:36:15.524Z,999.8
2017-09-13T03:37:24.368Z,999.65
2017-09-13T03:38:33.267Z,999.54
2017-09-13T03:39:42.441Z,999.48
2017-09-13T03:40:51.285Z,999.4
2017-09-13T03:42:00.125Z,999.49
2017-09-13T03:43:08.972Z,999.41
2017-09-13T03:44:17.813Z,999.36
2017-09-13T03:45:26.654Z,999.33
2017-09-13T03:46:35.493Z,999.32
2017-09-13T03:47:44.337Z,999.18
2017-09-13T03:48:53.177Z,999.11
2017-09-13T03:50:02.169Z,999.11
2017-09-13T03:51:11.011Z,999.16
2017-09-13T03:52:19.852Z,999.09
2017-09-13T03:53:28.693Z,999.07
2017-09-13T03:54:37.532Z,999.08
2017-09-13T03:55:46.523Z,999.02
2017-09-13T03:56:55.364Z,998.98
2017-09-13T03:58:04.204Z,998.77
2017-09-13T03:59:13.046Z,998.61
2017-09-13T04:00:21.885Z,998.53
2017-09-13T04:01:30.776Z,998.43
2017-09-13T04:02:39.617Z,998.38
2017-09-13T04:03:48.459Z,998.39
2017-09-13T04:04:57.299Z,998.34
2017-09-13T04:06:06.140Z,998.25
2017-09-13T04:07:15.234Z,998.24
2017-09-13T04:08:24.076Z,998.17
2017-09-13T04:09:32.918Z,998.17
2017-09-13T04:10:41.761Z,998.16
2017-09-13T04:11:50.602Z,998.12
2017-09-13T04:12:59.493Z,998.06
2017-09-13T04:14:08.335Z,998
2017-09-13T04:15:17.178Z,997.93
2017-09-13T04:16:26.019Z,997.77
2017-09-13T04:17:34.859Z,997.75
2017-09-13T04:18:44.005Z,997.68
2017-09-13T04:19:53.176Z,997.67
2017-09-13T04:21:02.016Z,997.62
2017-09-13T04:22:10.858Z,997.59
2017-09-13T04:23:19.702Z,997.55
2017-09-13T04:24:28.844Z,997.42
2017-09-13T04:25:37.684Z,997.36
2017-09-13T04:26:46.525Z,997.38
2017-09-13T04:27:55.365Z,997.35
2017-09-13T04:29:04.204Z,997.3
2017-09-13T04:30:13.202Z,997.26
2017-09-13T04:31:22.378Z,997.17
2017-09-13T04:32:31.218Z,997.09
2017-09-13T04:33:40.064Z,997.06
2017-09-13T04:34:48.907Z,997.04
2017-09-13T04:35:58.044Z,997.02
2017-09-13T04:37:06.887Z,996.92
2017-09-13T04:38:15.729Z,996.85
2017-09-13T04:39:24.570Z,996.85
2017-09-13T04:40:33.411Z,996.7
2017-09-13T04:41:42.403Z,996.7
2017-09-13T04:42:51.245Z,996.65
2017-09-13T04:44:00.087Z,996.63
2017-09-13T04:45:08.931Z,996.53
2017-09-13T04:46:17.774Z,996.48
2017-09-13T04:47:26.614Z,996.48
2017-09-13T04:48:35.457Z,996.41
2017-09-13T04:49:44.629Z,996.44
2017-09-13T04:50:53.802Z,996.37
2017-09-13T04:52:02.644Z,996.31
2017-09-13T04:53:11.636Z,996.21
2017-09-13T04:54:20.476Z,996.13
2017-09-13T04:55:29.317Z,996.12
2017-09-13T04:56:38.158Z,996.07
2017-09-13T04:57:47.000Z,996.03
2017-09-13T04:58:56.093Z,996
2017-09-13T05:00:04.935Z,995.87
2017-09-13T05:01:13.782Z,995.88
2017-09-13T05:02:22.686Z,995.82
2017-09-13T05:03:31.533Z,995.7
2017-09-13T05:04:40.383Z,995.7
2017-09-13T05:05:49.229Z,995.64
2017-09-13T05:06:58.075Z,995.65
2017-09-13T05:08:06.920Z,995.62
2017-09-13T05:09:15.765Z,995.6
2017-09-13T05:10:24.606Z,995.57
2017-09-13T05:11:33.453Z,995.52
2017-09-13T05:12:42.297Z,995.44
2017-09-13T05:13:51.141Z,995.42
2017-09-13T05:14:59.986Z,995.4
2017-09-13T05:16:09.166Z,995.42
2017-09-13T05:17:18.009Z,995.31
2017-09-13T05:18:26.853Z,995.36
2017-09-13T05:19:35.697Z,995.27
2017-09-13T05:20:44.542Z,995.25
2017-09-13T05:21:53.386Z,995.29
2017-09-13T05:23:02.232Z,995.18
2017-09-13T05:24:11.076Z,995.14
2017-09-13T05:25:19.919Z,995.03
2017-09-13T05:26:28.764Z,995.1
2017-09-13T05:27:37.612Z,995.12
2017-09-13T05:28:46.459Z,995.15
2017-09-13T05:29:55.353Z,995.17
2017-09-13T05:31:04.197Z,995.11
2017-09-13T05:32:13.042Z,995.12
2017-09-13T05:33:21.885Z,995.06
2017-09-13T05:34:30.730Z,995
2017-09-13T05:35:39.728Z,995.04
2017-09-13T05:36:48.572Z,994.93
2017-09-13T05:37:57.417Z,994.93
2017-09-13T05:39:06.261Z,994.85
2017-09-13T05:40:15.104Z,994.8
2017-09-13T05:41:24.098Z,994.78
2017-09-13T05:42:32.943Z,994.74
2017-09-13T05:43:42.120Z,994.7
2017-09-13T05:44:50.967Z,994.66
2017-09-13T05:45:59.815Z,994.64
2017-09-13T05:47:08.659Z,994.61
2017-09-13T05:48:17.501Z,994.55
2017-09-13T05:49:26.351Z,994.47
2017-09-13T05:50:35.524Z,994.45
2017-09-13T05:51:44.372Z,994.49
2017-09-13T05:52:53.358Z,994.45
2017-09-13T05:54:02.203Z,994.43
2017-09-13T05:55:11.047Z,994.48
2017-09-13T05:56:19.902Z,994.31
2017-09-13T05:57:29.075Z,994.43
2017-09-13T05:58:38.069Z,994.32
2017-09-13T05:59:46.923Z,994.2
2017-09-13T06:00:55.769Z,994.25
2017-09-13T06:02:04.615Z,994.11
2017-09-13T06:03:13.457Z,994.04
2017-09-13T06:04:22.307Z,994.09
2017-09-13T06:05:31.151Z,994.2
2017-09-13T06:06:40.327Z,994.08
2017-09-13T06:07:49.171Z,994.05
2017-09-13T06:08:58.018Z,993.93
2017-09-13T06:10:07.065Z,993.91
2017-09-13T06:11:15.909Z,993.88
2017-09-13T06:12:24.753Z,994
2017-09-13T06:13:33.595Z,994.1
2017-09-13T06:14:42.438Z,994.15
2017-09-13T06:15:51.435Z,994.22
2017-09-13T06:17:00.283Z,994.11
2017-09-13T06:18:09.130Z,994.13
2017-09-13T06:19:17.974Z,994.07
2017-09-13T06:20:26.819Z,993.99
2017-09-13T06:21:35.663Z,993.96
2017-09-13T06:22:44.508Z,993.89
2017-09-13T06:23:53.671Z,993.86
2017-09-13T06:25:02.514Z,993.69
2017-09-13T06:26:11.358Z,993.63
2017-09-13T06:27:20.301Z,993.74
2017-09-13T06:28:29.457Z,993.6
2017-09-13T06:29:38.301Z,993.7
2017-09-13T06:30:47.476Z,993.69
2017-09-13T06:31:56.319Z,993.71
2017-09-13T06:33:05.212Z,993.63
2017-09-13T06:34:14.057Z,993.53
2017-09-13T06:35:22.904Z,993.43
2017-09-13T06:36:31.747Z,993.4
2017-09-13T06:37:40.591Z,993.34
2017-09-13T06:38:49.538Z,993.39
2017-09-13T06:39:58.376Z,993.5
2017-09-13T06:41:07.221Z,993.42
2017-09-13T06:42:16.062Z,993.45
2017-09-13T06:43:24.909Z,993.39
2017-09-13T06:44:33.902Z,993.4
2017-09-13T06:45:42.744Z,993.46
2017-09-13T06:46:51.615Z,993.3
2017-09-13T06:48:00.434Z,993.28
2017-09-13T06:49:09.281Z,993.15
2017-09-13T06:50:18.289Z,993.25
2017-09-13T06:51:27.133Z,993.16
2017-09-13T06:52:36.311Z,993.11
2017-09-13T06:53:45.156Z,993.13
2017-09-13T06:54:54.003Z,993.04
2017-09-13T06:56:02.900Z,993.02
2017-09-13T06:57:11.745Z,992.97
2017-09-13T06:58:20.588Z,992.93
2017-09-13T06:59:29.452Z,992.92
2017-09-13T07:00:38.346Z,992.79
2017-09-13T07:01:47.289Z,992.89
2017-09-13T07:02:56.137Z,992.77
2017-09-13T07:04:04.987Z,992.81
2017-09-13T07:05:13.834Z,992.84
2017-09-13T07:06:22.701Z,992.8
2017-09-13T07:07:31.702Z,992.76
2017-09-13T07:08:40.590Z,992.78
2017-09-13T07:09:49.476Z,992.78
2017-09-13T07:10:58.344Z,992.73
2017-09-13T07:12:07.251Z,992.8
2017-09-13T07:13:16.305Z,992.78
2017-09-13T07:14:25.372Z,992.76
2017-09-13T07:15:34.881Z,992.74
2017-09-13T07:16:43.955Z,992.8
2017-09-13T07:17:52.954Z,992.73
2017-09-13T07:19:02.203Z,992.68
2017-09-13T07:20:11.279Z,992.68
2017-09-13T07:21:20.236Z,992.54
2017-09-13T07:22:29.200Z,992.55
2017-09-13T07:23:38.235Z,992.56
2017-09-13T07:24:47.218Z,992.41
2017-09-13T07:25:56.198Z,992.49
2017-09-13T07:27:05.333Z,992.51
2017-09-13T07:28:14.399Z,992.47
2017-09-13T07:29:23.329Z,992.39
2017-09-13T07:30:32.654Z,992.39
2017-09-13T07:31:41.608Z,992.37
2017-09-13T07:32:50.870Z,992.31
2017-09-13T07:33:59.895Z,992.33
2017-09-13T07:35:08.795Z,992.32
2017-09-13T07:36:17.831Z,992.32
2017-09-13T07:37:26.679Z,992.35
2017-09-13T07:38:35.534Z,992.24
2017-09-13T07:39:44.383Z,992.25
2017-09-13T07:40:53.330Z,992.23
2017-09-13T07:42:02.451Z,992.13
2017-09-13T07:43:11.325Z,992.22
2017-09-13T07:44:20.262Z,992.16
2017-09-13T07:45:29.207Z,992.19
2017-09-13T07:46:38.075Z,992.11
2017-09-13T07:47:47.102Z,992.11
2017-09-13T07:48:55.947Z,992.1
2017-09-13T07:50:04.793Z,992.05
2017-09-13T07:51:14.369Z,991.98
2017-09-13T07:52:23.594Z,992.02
2017-09-13T07:53:32.577Z,991.93
2017-09-13T07:54:41.471Z,991.85
2017-09-13T07:55:50.323Z,991.85
2017-09-13T07:56:59.174Z,991.88
2017-09-13T07:58:08.062Z,991.85
2017-09-13T07:59:17.186Z,991.75
2017-09-13T08:00:26.057Z,991.71
2017-09-13T08:01:34.946Z,991.75
2017-09-13T08:02:43.803Z,991.72
2017-09-13T08:03:52.666Z,991.71
2017-09-13T08:05:01.669Z,991.54
2017-09-13T08:06:10.525Z,991.57
2017-09-13T08:07:19.395Z,991.75
2017-09-13T08:08:28.273Z,991.86
2017-09-13T08:09:37.124Z,991.68
2017-09-13T08:10:46.295Z,991.81
2017-09-13T08:11:55.161Z,991.78
2017-09-13T08:13:04.069Z,991.8
2017-09-13T08:14:13.020Z,991.74
2017-09-13T08:15:21.928Z,991.85
2017-09-13T08:16:30.971Z,991.74
2017-09-13T08:17:39.900Z,991.63
2017-09-13T08:18:48.758Z,991.69
2017-09-13T08:19:57.622Z,991.67
2017-09-13T08:21:06.484Z,991.58
2017-09-13T08:22:15.331Z,991.64
2017-09-13T08:23:24.180Z,991.64
2017-09-13T08:24:33.030Z,991.55
2017-09-13T08:25:41.884Z,991.54
2017-09-13T08:26:50.771Z,991.49
2017-09-13T08:27:59.631Z,991.51
2017-09-13T08:29:08.539Z,991.42
2017-09-13T08:30:17.389Z,991.45
2017-09-13T08:31:26.252Z,991.47
2017-09-13T08:32:35.101Z,991.5
2017-09-13T08:33:43.998Z,991.41
2017-09-13T08:34:52.848Z,991.31
2017-09-13T08:36:01.699Z,991.43
2017-09-13T08:37:10.547Z,991.3
2017-09-13T08:38:19.395Z,991.33
2017-09-13T08:39:28.241Z,991.26
2017-09-13T08:40:37.117Z,991.31
2017-09-13T08:41:45.966Z,991.37
2017-09-13T08:42:54.811Z,991.34
2017-09-13T08:44:03.662Z,991.21
2017-09-13T08:45:12.678Z,991.31
2017-09-13T08:46:21.539Z,991.22
2017-09-13T08:47:30.390Z,991.21
2017-09-13T08:48:39.238Z,991.21
2017-09-13T08:49:48.087Z,991.3
2017-09-13T08:50:57.085Z,991.24
2017-09-13T08:52:05.936Z,991.24
2017-09-13T08:53:14.782Z,991.18
2017-09-13T08:54:23.629Z,991.11
2017-09-13T08:55:32.478Z,991.1
2017-09-13T08:56:41.578Z,991.06
2017-09-13T08:57:50.422Z,991.05
2017-09-13T08:58:59.269Z,991.13
2017-09-13T09:00:08.117Z,991.18
2017-09-13T09:01:16.964Z,991.09
2017-09-13T09:02:26.046Z,991.02
2017-09-13T09:03:35.027Z,991.09
2017-09-13T09:04:44.265Z,991.18
2017-09-13T09:05:53.200Z,991.09
2017-09-13T09:07:02.092Z,991.2
2017-09-13T09:08:11.062Z,991.15
2017-09-13T09:09:19.929Z,991.29
2017-09-13T09:10:29.219Z,991.11
2017-09-13T09:11:38.118Z,991.15
2017-09-13T09:12:46.968Z,991.28
2017-09-13T09:13:55.969Z,991.25
2017-09-13T09:15:04.817Z,991.18
2017-09-13T09:16:13.666Z,991.21
2017-09-13T09:17:22.515Z,991.1
2017-09-13T09:18:31.363Z,991.17
2017-09-13T09:19:40.362Z,991.25
2017-09-13T09:20:49.208Z,991.26
2017-09-13T09:21:58.059Z,991.08
2017-09-13T09:23:06.913Z,991.11
2017-09-13T09:24:15.797Z,991.39
2017-09-13T09:25:24.911Z,991.21
2017-09-13T09:26:33.759Z,991.22
2017-09-13T09:27:42.611Z,991.26
2017-09-13T09:28:51.460Z,991.28
2017-09-13T09:30:00.306Z,991.31
2017-09-13T09:31:09.457Z,991.27
2017-09-13T09:32:18.307Z,991.29
2017-09-13T09:33:27.150Z,991.36
2017-09-13T09:34:35.996Z,991.31
2017-09-13T09:35:44.855Z,991.33
2017-09-13T09:36:53.808Z,991.26
2017-09-13T09:38:02.683Z,991.2
2017-09-13T09:39:11.537Z,991.19
2017-09-13T09:40:20.388Z,991.31
2017-09-13T09:41:29.246Z,991.3
2017-09-13T09:42:38.259Z,991.26
2017-09-13T09:43:47.106Z,991.37
2017-09-13T09:44:55.992Z,991.49
2017-09-13T09:46:04.857Z,991.58
2017-09-13T09:47:13.704Z,991.5
2017-09-13T09:48:22.605Z,991.57
2017-09-13T09:49:31.457Z,991.55
2017-09-13T09:50:40.311Z,991.57
2017-09-13T09:51:49.171Z,991.63
2017-09-13T09:52:58.022Z,991.55
2017-09-13T09:54:06.978Z,991.6
2017-09-13T09:55:15.826Z,991.59
2017-09-13T09:56:24.672Z,991.74
2017-09-13T09:57:33.517Z,991.76
2017-09-13T09:58:42.365Z,991.65
2017-09-13T09:59:51.300Z,991.63
2017-09-13T10:01:00.152Z,991.63
2017-09-13T10:02:09.025Z,991.66
2017-09-13T10:03:17.966Z,991.76
2017-09-13T10:04:26.824Z,991.82
2017-09-13T10:05:35.835Z,992.08
2017-09-13T10:06:44.682Z,992.28
2017-09-13T10:07:53.668Z,991.83
2017-09-13T10:09:02.541Z,991.96
2017-09-13T10:10:11.421Z,991.95
2017-09-13T10:11:20.422Z,991.77
2017-09-13T10:12:29.282Z,991.8
2017-09-13T10:13:38.133Z,991.91
2017-09-13T10:14:47.021Z,991.84
2017-09-13T10:15:55.878Z,991.82
2017-09-13T10:17:04.773Z,992.03
2017-09-13T10:18:13.652Z,991.96
2017-09-13T10:19:22.501Z,992.04
2017-09-13T10:20:31.358Z,991.86
2017-09-13T10:21:40.204Z,991.96
2017-09-13T10:22:49.104Z,991.99
2017-09-13T10:23:57.952Z,992.09
2017-09-13T10:25:06.799Z,992.15
2017-09-13T10:26:15.975Z,992.17
2017-09-13T10:27:24.819Z,992.51
2017-09-13T10:28:33.665Z,992.23
2017-09-13T10:29:42.508Z,992.24
2017-09-13T10:30:51.352Z,992.12
2017-09-13T10:32:00.198Z,992.32
2017-09-13T10:33:09.047Z,992.21
2017-09-13T10:34:18.390Z,992.16
2017-09-13T10:35:27.602Z,991.86
2017-09-13T10:36:36.471Z,991.93
2017-09-13T10:37:45.317Z,992.41
2017-09-13T10:38:54.161Z,992.24
2017-09-13T10:40:03.145Z,992.23
2017-09-13T10:41:12.022Z,992.3
2017-09-13T10:42:20.870Z,992.33
2017-09-13T10:43:29.720Z,992.24
2017-09-13T10:44:38.570Z,992.23
2017-09-13T10:45:48.030Z,992.26
2017-09-13T10:46:56.892Z,992.33
2017-09-13T10:48:05.750Z,992.43
2017-09-13T10:49:14.596Z,992.52
2017-09-13T10:50:23.616Z,992.66
2017-09-13T10:51:33.158Z,992.83
2017-09-13T10:52:42.174Z,992.38
2017-09-13T10:53:51.520Z,992.44
2017-09-13T10:55:00.425Z,992.82
2017-09-13T10:56:09.367Z,992.92
2017-09-13T10:57:18.815Z,992.79
2017-09-13T10:58:27.706Z,992.98
2017-09-13T10:59:37.692Z,992.83
2017-09-13T11:00:46.872Z,992.78
2017-09-13T11:01:55.753Z,992.77
2017-09-13T11:03:04.867Z,993.01
2017-09-13T11:04:14.114Z,992.98
2017-09-13T11:05:23.011Z,992.84
2017-09-13T11:06:31.935Z,992.73
2017-09-13T11:07:40.869Z,992.73
2017-09-13T11:08:50.372Z,992.72
2017-09-13T11:09:59.213Z,992.74
2017-09-13T11:11:08.124Z,992.8
2017-09-13T11:12:16.969Z,992.75
2017-09-13T11:13:25.815Z,992.73
2017-09-13T11:14:35.486Z,992.77
2017-09-13T11:15:44.341Z,992.9
2017-09-13T11:16:54.098Z,992.87
2017-09-13T11:18:03.121Z,992.89
2017-09-13T11:19:12.299Z,992.77
2017-09-13T11:20:21.316Z,992.79
2017-09-13T11:21:30.365Z,992.81
2017-09-13T11:22:39.217Z,992.91
2017-09-13T11:23:48.477Z,992.68
2017-09-13T11:24:57.391Z,992.84
2017-09-13T11:26:06.694Z,992.81
2017-09-13T11:27:15.654Z,992.66
2017-09-13T11:28:24.625Z,992.83
2017-09-13T11:29:33.580Z,992.74
2017-09-13T11:30:42.873Z,992.73
2017-09-13T11:31:52.184Z,992.71
2017-09-13T11:33:01.206Z,992.88
2017-09-13T11:34:11.374Z,992.98
2017-09-13T11:35:20.621Z,992.94
2017-09-13T11:36:29.467Z,992.82
2017-09-13T11:37:38.454Z,992.92
2017-09-13T11:38:47.638Z,993.16
2017-09-13T11:39:56.483Z,992.92
2017-09-13T11:41:05.330Z,992.91
2017-09-13T11:42:14.178Z,992.95
2017-09-13T11:43:23.083Z,993.07
2017-09-13T11:44:31.930Z,992.91
2017-09-13T11:45:40.833Z,992.96
2017-09-13T11:46:49.724Z,992.86
2017-09-13T11:47:58.613Z,993.08
2017-09-13T11:49:08.117Z,992.82
2017-09-13T11:50:17.000Z,992.84
2017-09-13T11:51:25.849Z,992.65
2017-09-13T11:52:34.695Z,993.03
2017-09-13T11:53:43.546Z,992.92
2017-09-13T11:54:52.547Z,993.03
2017-09-13T11:56:01.393Z,993.09
2017-09-13T11:57:10.242Z,992.97
2017-09-13T11:58:19.089Z,993.01
2017-09-13T11:59:27.935Z,993.02
2017-09-13T12:00:37.080Z,993.21
2017-09-13T12:01:45.928Z,993.05
2017-09-13T12:02:54.779Z,993.18
2017-09-13T12:04:03.626Z,993.3
2017-09-13T12:05:12.475Z,993.24
2017-09-13T12:06:21.623Z,993.2
2017-09-13T12:07:30.472Z,993.24
2017-09-13T12:08:39.322Z,993.21
2017-09-13T12:09:48.171Z,993.31
2017-09-13T12:10:57.017Z,993.37
2017-09-13T12:12:06.015Z,993.43
2017-09-13T12:13:14.864Z,993.32
2017-09-13T12:14:23.713Z,993.64
2017-09-13T12:15:32.561Z,993.45
2017-09-13T12:16:41.411Z,993.34
2017-09-13T12:17:50.358Z,993.05
2017-09-13T12:18:59.206Z,993.37
2017-09-13T12:20:08.386Z,993.33
2017-09-13T12:21:17.238Z,993.34
2017-09-13T12:22:26.085Z,993.33
2017-09-13T12:23:35.082Z,993.3
2017-09-13T12:24:43.931Z,993.62
2017-09-13T12:25:52.878Z,993.64
2017-09-13T12:27:01.728Z,993.75
2017-09-13T12:28:10.579Z,993.92
2017-09-13T12:29:19.690Z,993.61
2017-09-13T12:30:28.558Z,993.63
2017-09-13T12:31:37.748Z,993.7
2017-09-13T12:32:46.597Z,993.84
2017-09-13T12:33:55.445Z,993.67
2017-09-13T12:35:04.453Z,993.89
2017-09-13T12:36:13.298Z,993.71
2017-09-13T12:37:22.148Z,993.81
2017-09-13T12:38:30.996Z,993.82
2017-09-13T12:39:39.868Z,993.78
2017-09-13T12:40:48.719Z,993.57
2017-09-13T12:41:57.567Z,993.52
2017-09-13T12:43:06.415Z,993.54
2017-09-13T12:44:15.263Z,993.56
2017-09-13T12:45:24.111Z,993.39
2017-09-13T12:46:33.109Z,993.8
2017-09-13T12:47:41.960Z,993.7
2017-09-13T12:48:50.859Z,993.8
2017-09-13T12:49:59.709Z,993.86
2017-09-13T12:51:08.558Z,993.7
2017-09-13T12:52:17.611Z,993.47
2017-09-13T12:53:26.470Z,993.81
2017-09-13T12:54:35.329Z,993.65
2017-09-13T12:55:44.181Z,993.85
2017-09-13T12:56:53.698Z,993.97
2017-09-13T12:58:03.108Z,993.85
2017-09-13T12:59:11.956Z,993.71
2017-09-13T13:00:20.810Z,993.9
2017-09-13T13:01:29.658Z,994.05
2017-09-13T13:02:38.506Z,994.01
2017-09-13T13:03:47.440Z,994.14
2017-09-13T13:04:56.329Z,993.85
2017-09-13T13:06:05.177Z,994
2017-09-13T13:07:14.027Z,993.61
2017-09-13T13:08:23.205Z,994.07
2017-09-13T13:09:32.152Z,994.35
2017-09-13T13:10:40.998Z,994.2
2017-09-13T13:11:49.847Z,994.49
2017-09-13T13:12:58.694Z,994.22
2017-09-13T13:14:07.543Z,994.24
2017-09-13T13:15:16.441Z,994
2017-09-13T13:16:25.625Z,994.23
2017-09-13T13:17:34.472Z,994.11
2017-09-13T13:18:43.330Z,994.21
2017-09-13T13:19:52.182Z,994.22
2017-09-13T13:21:01.179Z,994.25
2017-09-13T13:22:10.030Z,994.29
2017-09-13T13:23:18.877Z,994.28
2017-09-13T13:24:27.727Z,994.47
2017-09-13T13:25:36.573Z,994.13
2017-09-13T13:26:45.727Z,994.59
2017-09-13T13:27:54.577Z,994.38
2017-09-13T13:29:03.760Z,994.46
2017-09-13T13:30:12.605Z,994.31
2017-09-13T13:31:21.452Z,994.45
2017-09-13T13:32:30.601Z,994.32
2017-09-13T13:33:39.783Z,994.34
2017-09-13T13:34:48.640Z,994.32
2017-09-13T13:35:57.821Z,994.51
2017-09-13T13:37:07.003Z,994.44
2017-09-13T13:38:16.624Z,994.26
2017-09-13T13:39:25.839Z,993.96
2017-09-13T13:40:34.691Z,994.21
2017-09-13T13:41:43.537Z,994.61
2017-09-13T13:42:52.386Z,994.35
2017-09-13T13:44:01.282Z,994.49
2017-09-13T13:45:10.130Z,994.25
2017-09-13T13:46:18.978Z,994.45
2017-09-13T13:47:27.825Z,994.43
2017-09-13T13:48:36.681Z,994.29
2017-09-13T13:49:45.893Z,994.46
2017-09-13T13:50:54.740Z,994.49
2017-09-13T13:52:03.591Z,994.34
2017-09-13T13:53:12.438Z,994.48
2017-09-13T13:54:21.288Z,994.4
2017-09-13T13:55:30.236Z,994.46
2017-09-13T13:56:39.086Z,994.49
2017-09-13T13:57:47.938Z,994.55
2017-09-13T13:58:56.790Z,994.46
2017-09-13T14:00:05.648Z,994.66
2017-09-13T14:01:14.611Z,994.62
2017-09-13T14:02:23.493Z,994.52
2017-09-13T14:03:32.388Z,994.72
2017-09-13T14:04:41.245Z,994.71
2017-09-13T14:05:50.111Z,994.8
2017-09-13T14:06:59.021Z,994.73
2017-09-13T14:08:07.879Z,995.01
2017-09-13T14:09:16.738Z,994.75
2017-09-13T14:10:25.600Z,994.22
2017-09-13T14:11:34.469Z,994.89
2017-09-13T14:12:43.633Z,994.69
2017-09-13T14:13:52.497Z,994.77
2017-09-13T14:15:01.694Z,994.97
2017-09-13T14:16:10.554Z,994.84